Terminal Aerodrome Forecast
Issued by NWS

Home | Current Version | Previous Version | Text Only | Print | Product List | Glossary On
Versions: 1 2 3 4 5 6 7 8 9 10 11 12 13 14 15 16 17 18 19 20 21 22 23 24 25 26 27 28 29 30
000
FTUS45 KTWC 302320
TAFOLS
TAF
KOLS 302320Z 3100/3124 22007KT P6SM VCTS SCT060CB BKN110 OVC200
      TEMPO 3100/3101 VRB20G35KT 4SM TSRA SCT030 BKN060CB
     FM310200 13005KT P6SM SCT080 SCT130 BKN200
     FM310700 VRB03KT P6SM FEW130 SCT250
     FM312000 14007KT P6SM SCT060 BKN150=

USA.gov is the U.S. government's official web portal to all federal, state and local government web resources and services.